Time;durP1;ratioP1;P1;durP2;ratioP2;P2;SDS_P1;SDS_P2;PMS_P1;PMS_P2;Temp;Humidity;BMP_temperature;BMP_pressure;BME280_temperature;BME280_humidity;BME280_pressure;Samples;Min_cycle;Max_cycle;Signal;HPM_P1;HPM_P2
2022/12/15 00:38:54;;;;;;;93.22;47.75;;;;;;;13.73;59.79;98923.78;4972736;28;20097;-60
2022/12/15 00:41:43;;;;;;;92.45;49.65;;;;;;;13.69;61.40;98932.31;4975804;28;20186;-61
2022/12/15 00:44:32;;;;;;;86.03;48.58;;;;;;;13.65;62.17;98933.81;4972986;28;20050;-61
2022/12/15 00:47:14;;;;;;;89.88;50.78;;;;;;;13.74;60.52;98937.03;4974152;28;20050;-62
2022/12/15 01:20:48;;;;;;;106.85;57.75;;;;;;;13.24;62.77;98966.88;4968948;28;20073;-60
2022/12/15 01:23:44;;;;;;;107.68;59.35;;;;;;;13.30;63.78;98977.63;4972785;28;20073;-60
2022/12/15 01:26:20;;;;;;;112.40;61.63;;;;;;;13.25;63.04;98977.44;4972748;28;20124;-60
2022/12/15 01:29:15;;;;;;;119.70;62.10;;;;;;;13.25;62.95;98984.69;4974301;28;20054;-60
2022/12/15 01:31:51;;;;;;;116.75;63.28;;;;;;;13.19;63.74;98981.03;4975069;28;20058;-59
2022/12/15 01:34:39;;;;;;;114.85;63.25;;;;;;;13.36;62.77;98981.28;4973983;28;20074;-59
2022/12/15 01:37:21;;;;;;;121.22;63.30;;;;;;;13.25;63.89;98985.50;4972212;28;20050;-60
2022/12/15 01:43:41;;;;;;;125.75;64.45;;;;;;;13.10;63.47;98993.16;4977431;28;20046;-58
2022/12/15 01:46:36;;;;;;;125.32;64.30;;;;;;;13.08;64.98;98996.06;4980060;28;20120;-58
2022/12/15 01:49:30;;;;;;;123.97;67.32;;;;;;;13.17;63.90;98999.31;4955875;28;20083;-58
2022/12/15 01:52:20;;;;;;;;;;;;;;;13.02;64.83;99002.34;4944781;28;20125;-59
2022/12/15 01:55:03;;;;;;;118.35;66.78;;;;;;;13.08;65.79;99011.41;4955420;28;19930;-59
2022/12/15 01:57:53;;;;;;;125.03;65.72;;;;;;;12.89;63.94;99016.75;4957312;28;20082;-60
2022/12/15 02:00:36;;;;;;;114.82;65.32;;;;;;;12.88;65.85;99023.22;4958661;28;20788;-59
2022/12/15 02:03:24;;;;;;;135.02;69.35;;;;;;;12.92;65.67;99029.78;4936912;28;20083;-61
2022/12/15 02:06:08;;;;;;;122.03;67.97;;;;;;;13.02;66.21;99034.69;4954341;28;20141;-59
2022/12/15 02:09:01;;;;;;;127.80;67.82;;;;;;;13.13;66.27;99039.34;4957185;28;20061;-60
2022/12/15 02:11:52;;;;;;;120.57;67.28;;;;;;;13.09;66.72;99040.03;4954956;28;20633;-60
2022/12/15 02:15:10;;;;;;;130.73;69.50;;;;;;;13.13;66.41;99047.44;4959397;28;20046;-59
2022/12/15 02:18:25;;;;;;;119.00;68.82;;;;;;;13.10;67.51;99049.72;4957796;28;20073;-59
2022/12/15 02:21:19;;;;;;;136.48;72.18;;;;;;;13.23;67.07;99056.88;4957638;28;20439;-59
2022/12/15 02:24:38;;;;;;;136.02;71.18;;;;;;;13.23;67.17;99051.47;4956044;28;20051;-59
2022/12/15 02:27:44;;;;;;;135.48;70.68;;;;;;;13.35;66.69;99071.28;4958662;28;20062;-59
2022/12/15 02:30:29;;;;;;;140.30;71.32;;;;;;;13.44;65.29;99067.25;4953336;28;20043;-59
2022/12/15 02:33:29;;;;;;;138.18;73.15;;;;;;;13.41;66.76;99062.31;4958790;28;20162;-60
2022/12/15 02:36:25;;;;;;;131.90;71.95;;;;;;;13.47;67.56;99058.72;4954578;28;20133;-60
2022/12/15 02:39:17;;;;;;;142.75;78.20;;;;;;;13.54;66.45;99060.50;4957957;28;20065;-60
2022/12/15 02:41:59;;;;;;;151.50;79.85;;;;;;;13.58;67.83;99053.63;4957483;28;20047;-60
2022/12/15 02:44:58;;;;;;;156.45;84.05;;;;;;;13.77;67.31;99057.94;4955544;28;20047;-60
2022/12/15 02:47:57;;;;;;;145.40;81.78;;;;;;;13.90;67.50;99062.38;4962507;28;20051;-58
2022/12/15 02:51:20;;;;;;;153.88;82.75;;;;;;;13.95;66.58;99065.22;4965161;28;20055;-59
2022/12/15 02:54:17;;;;;;;170.52;85.97;;;;;;;14.01;67.17;99068.88;4964828;28;20070;-59
2022/12/15 02:57:16;;;;;;;;;;;;;;;14.17;66.13;99080.91;4977070;28;20470;-59
2022/12/15 03:00:08;;;;;;;154.88;84.35;;;;;;;14.25;64.92;99089.53;4975895;28;19929;-59
2022/12/15 03:03:02;;;;;;;162.77;80.43;;;;;;;14.33;65.12;99076.72;4951189;28;20466;-59
2022/12/15 03:05:46;;;;;;;152.63;81.97;;;;;;;14.54;64.23;99092.44;4974437;28;20171;-59
2022/12/15 03:08:34;;;;;;;147.95;75.43;;;;;;;14.72;62.34;99090.75;4970156;28;20113;-59
2022/12/15 03:11:16;;;;;;;144.90;75.45;;;;;;;14.87;63.34;99093.84;4966116;28;20752;-59
2022/12/15 03:14:05;;;;;;;141.68;74.75;;;;;;;14.94;63.04;99089.16;4964944;28;20590;-60
2022/12/15 03:16:47;;;;;;;139.57;72.82;;;;;;;15.16;60.43;99096.69;4966564;28;20078;-59
2022/12/15 03:19:36;;;;;;;133.18;70.70;;;;;;;15.30;60.41;99098.06;4948403;28;20109;-59
2022/12/15 03:22:35;;;;;;;139.52;72.60;;;;;;;15.46;60.63;99091.97;4965787;28;20113;-59
2022/12/15 03:25:11;;;;;;;139.15;68.85;;;;;;;15.71;58.98;99103.59;4967310;28;20096;-59
2022/12/15 03:28:06;;;;;;;115.35;67.20;;;;;;;16.20;58.28;99099.50;4976479;28;20039;-58
2022/12/15 03:30:42;;;;;;;110.90;65.50;;;;;;;16.59;57.81;99109.69;4969978;28;20092;-58
2022/12/15 03:33:39;;;;;;;135.77;69.53;;;;;;;17.04;57.70;99111.53;4972533;28;20058;-59
2022/12/15 03:36:15;;;;;;;133.48;67.88;;;;;;;17.63;55.31;99115.69;4972421;28;20053;-58
2022/12/15 03:39:11;;;;;;;123.45;65.20;;;;;;;18.23;54.23;99123.00;4972611;28;20046;-58
2022/12/15 03:41:47;;;;;;;110.40;61.33;;;;;;;18.66;53.44;99115.84;4973001;28;20086;-59
2022/12/15 03:44:35;;;;;;;121.47;61.72;;;;;;;19.34;49.57;99121.59;4974412;28;20054;-58
2022/12/15 03:47:17;;;;;;;106.65;60.30;;;;;;;19.70;49.89;99126.44;4976466;28;20054;-59
2022/12/15 03:50:13;;;;;;;109.40;56.92;;;;;;;20.47;45.60;99133.06;4972708;28;20050;-59
2022/12/15 03:52:54;;;;;;;100.22;54.65;;;;;;;21.07;44.29;99127.16;4969863;28;20125;-59
2022/12/15 03:55:48;;;;;;;112.38;59.78;;;;;;;21.27;43.79;99135.38;4965439;28;20061;-58
2022/12/15 03:58:24;;;;;;;111.60;59.85;;;;;;;21.40;43.61;99139.44;4965697;28;20571;-58
2022/12/15 04:01:40;;;;;;;106.47;57.80;;;;;;;21.78;42.24;99141.84;4965502;28;20398;-59
2022/12/15 04:04:16;;;;;;;107.47;56.50;;;;;;;21.86;42.44;99141.31;4947095;29;20082;-59
2022/12/15 04:07:04;;;;;;;93.03;53.60;;;;;;;22.20;41.67;99141.44;4960804;28;20051;-59
2022/12/15 04:09:46;;;;;;;93.13;51.45;;;;;;;22.44;42.38;99140.81;4964942;28;20054;-59
2022/12/15 04:12:41;;;;;;;96.18;51.10;;;;;;;22.71;40.65;99143.09;4946987;28;20470;-59
2022/12/15 04:15:17;;;;;;;102.43;55.38;;;;;;;22.81;41.65;99142.22;4964677;28;20054;-61
2022/12/15 04:18:15;;;;;;;119.57;64.47;;;;;;;23.26;40.05;99140.28;4951917;28;20055;-60
2022/12/15 04:20:51;;;;;;;106.38;57.90;;;;;;;23.21;40.69;99143.84;4966357;28;20058;-60
2022/12/15 05:31:51;;;;;;;87.28;45.85;;;;;;;21.48;37.69;99151.75;4965889;28;20042;-61
2022/12/15 05:34:40;;;;;;;91.32;46.85;;;;;;;21.99;39.16;99157.13;4968986;28;20042;-61
2022/12/15 05:37:30;;;;;;;94.22;47.88;;;;;;;22.00;40.87;99141.53;4969199;28;20427;-61
2022/12/15 05:40:11;;;;;;;72.88;44.35;;;;;;;21.91;38.80;99138.53;4967613;28;20146;-62
2022/12/15 05:43:03;;;;;;;69.60;40.50;;;;;;;22.17;36.04;99130.25;4966369;28;20133;-61
2022/12/15 05:45:45;;;;;;;77.05;43.13;;;;;;;22.63;36.89;99138.25;4967317;28;20379;-60
2022/12/15 05:48:41;;;;;;;73.82;38.67;;;;;;;22.79;34.50;99131.56;4950004;28;20109;-60
2022/12/15 05:51:30;;;;;;;61.15;33.42;;;;;;;23.63;35.26;99120.44;4954617;28;20438;-62
2022/12/15 05:54:16;;;;;;;52.17;31.65;;;;;;;23.89;34.42;99119.41;4967075;28;20073;-62
2022/12/15 05:57:05;;;;;;;58.33;32.17;;;;;;;23.52;30.36;99118.94;4963716;28;20058;-63
2022/12/15 05:59:47;;;;;;;57.50;31.75;;;;;;;24.07;30.90;99113.13;4958960;28;20057;-61
2022/12/15 06:02:44;;;;;;;50.67;30.92;;;;;;;24.23;30.71;99103.59;4964354;28;20073;-61
2022/12/15 06:05:29;;;;;;;54.78;29.98;;;;;;;24.24;33.26;99093.44;4966553;28;20051;-62
2022/12/15 06:08:24;;;;;;;63.58;32.55;;;;;;;24.25;32.45;99089.59;4968035;28;20367;-59
2022/12/15 06:11:01;;;;;;;55.10;30.83;;;;;;;24.44;32.67;99086.88;4964116;28;20050;-61
2022/12/15 06:13:57;;;;;;;;;;;;;;;24.65;29.93;99076.44;4967938;28;20137;-61
2022/12/15 06:16:32;;;;;;;39.97;22.88;;;;;;;24.57;29.51;99080.66;4968117;28;19925;-62
2022/12/15 06:19:36;;;;;;;40.80;22.38;;;;;;;24.41;29.60;99071.78;4967102;28;20132;-62
2022/12/15 06:22:12;;;;;;;33.97;21.60;;;;;;;24.22;29.89;99062.75;4948142;28;20807;-61
2022/12/15 06:25:01;;;;;;;39.75;21.48;;;;;;;24.39;29.15;99062.25;4965014;28;20051;-62
2022/12/15 06:27:43;;;;;;;44.28;23.30;;;;;;;24.53;31.69;99051.34;4967023;28;20047;-61
2022/12/15 06:30:38;;;;;;;41.28;23.55;;;;;;;24.53;29.12;99057.66;4966980;28;20039;-62
2022/12/15 06:33:20;;;;;;;43.45;23.80;;;;;;;24.27;29.52;99056.38;4950418;28;20061;-61
2022/12/15 06:36:23;;;;;;;51.38;24.25;;;;;;;24.28;28.99;99050.59;4968031;28;20777;-61
2022/12/15 06:38:59;;;;;;;47.50;24.65;;;;;;;24.70;29.79;99045.34;4976256;28;20459;-61
2022/12/15 06:41:54;;;;;;;38.88;23.65;;;;;;;24.29;29.27;99038.53;4974416;28;20046;-62
2022/12/15 06:44:30;;;;;;;42.15;21.25;;;;;;;24.28;29.50;99045.09;4974122;28;20054;-61
2022/12/15 06:47:24;;;;;;;35.10;19.95;;;;;;;24.73;30.86;99040.06;4972128;28;20149;-63
2022/12/15 06:50:13;;;;;;;37.92;21.73;;;;;;;24.17;30.36;99038.97;4953811;28;20136;-61
2022/12/15 06:53:04;;;;;;;42.95;20.23;;;;;;;24.53;32.42;99023.91;4949864;28;20078;-63
2022/12/15 06:55:47;;;;;;;36.92;21.60;;;;;;;24.49;31.36;99017.38;4948205;29;20055;-61
2022/12/15 06:58:36;;;;;;;53.25;22.50;;;;;;;24.51;30.60;99017.88;4948404;28;20147;-61
2022/12/15 07:01:23;;;;;;;43.00;23.92;;;;;;;24.45;31.65;99016.34;4947524;29;20747;-62
2022/12/15 07:04:11;;;;;;;47.45;24.55;;;;;;;24.85;33.42;99017.63;4928919;29;20054;-62
2022/12/15 07:06:53;;;;;;;44.70;24.23;;;;;;;24.91;31.35;99010.13;4944555;29;20062;-63
2022/12/15 07:09:42;;;;;;;51.47;25.48;;;;;;;24.38;33.67;99003.00;4946386;29;20530;-60
2022/12/15 07:12:31;;;;;;;42.47;23.75;;;;;;;25.11;32.57;99000.72;4953507;28;20125;-60
2022/12/15 07:15:13;;;;;;;47.83;24.33;;;;;;;24.67;33.83;99002.84;4954327;28;20538;-59
2022/12/15 07:18:09;;;;;;;50.63;22.98;;;;;;;24.75;32.51;98999.41;4952029;28;20100;-60
2022/12/15 07:20:45;;;;;;;30.48;18.52;;;;;;;24.22;30.99;98994.19;4948362;28;20055;-60
2022/12/15 07:23:41;;;;;;;35.58;19.10;;;;;;;24.98;31.60;98992.13;4948418;28;20376;-59
2022/12/15 07:26:29;;;;;;;35.15;18.48;;;;;;;25.04;30.22;98979.13;4952533;28;20059;-59
2022/12/15 07:29:24;;;;;;;31.02;16.73;;;;;;;24.87;30.66;98985.19;4955007;28;20118;-61
2022/12/15 07:32:00;;;;;;;27.77;15.57;;;;;;;25.25;30.96;98976.03;4957344;28;20055;-61
2022/12/15 07:34:55;;;;;;;26.60;16.23;;;;;;;25.29;30.72;98972.34;4955184;28;20680;-60
2022/12/15 07:37:31;;;;;;;25.27;15.07;;;;;;;25.14;29.67;98969.88;4953945;28;20050;-60
2022/12/15 07:40:20;;;;;;;30.95;13.30;;;;;;;25.43;31.41;98955.84;4957738;28;20262;-60
2022/12/15 07:43:02;;;;;;;20.85;11.73;;;;;;;25.06;30.09;98962.34;4953231;28;20051;-60
2022/12/15 07:45:52;;;;;;;22.88;11.57;;;;;;;24.99;28.85;98960.00;4947629;29;20055;-58
2022/12/15 07:48:34;;;;;;;24.35;13.05;;;;;;;24.78;29.21;98959.56;4960465;28;20077;-60
2022/12/15 07:51:23;;;;;;;18.45;11.13;;;;;;;24.97;29.26;98954.00;4965312;28;20173;-60
2022/12/15 07:54:05;;;;;;;21.20;10.95;;;;;;;25.01;29.48;98950.34;4965981;28;20053;-60
2022/12/15 07:56:54;;;;;;;23.88;10.73;;;;;;;24.66;28.91;98951.00;4964368;28;20522;-60
2022/12/15 07:59:36;;;;;;;23.17;10.57;;;;;;;24.98;28.70;98939.97;4965873;28;20138;-60
2022/12/15 08:02:25;;;;;;;20.35;12.02;;;;;;;24.52;29.14;98935.31;4965290;28;20058;-60
2022/12/15 08:05:07;;;;;;;28.77;12.02;;;;;;;24.49;29.25;98926.84;4965886;28;20046;-59
2022/12/15 08:08:03;;;;;;;23.65;12.13;;;;;;;24.51;29.95;98921.84;4965044;28;20050;-59
2022/12/15 08:10:45;;;;;;;40.45;13.13;;;;;;;24.52;30.31;98912.56;4965795;28;20053;-58
2022/12/15 08:13:35;;;;;;;25.92;12.77;;;;;;;24.59;30.68;98910.22;4964188;28;20136;-57
2022/12/15 08:16:44;;;;;;;23.58;12.95;;;;;;;24.70;30.99;98908.09;4973059;28;20050;-57
2022/12/15 08:19:26;;;;;;;24.05;13.15;;;;;;;24.52;31.12;98915.31;4973676;28;20047;-58
2022/12/15 08:22:15;;;;;;;28.42;12.57;;;;;;;24.88;30.94;98920.13;4974420;28;20054;-60
2022/12/15 08:24:57;;;;;;;25.73;13.50;;;;;;;24.72;30.70;98906.69;4975083;28;20047;-60
2022/12/15 08:27:46;;;;;;;25.80;13.00;;;;;;;24.78;30.86;98902.75;4973407;28;20073;-59
2022/12/15 08:30:28;;;;;;;24.67;11.88;;;;;;;24.87;30.74;98899.28;4972750;28;20051;-57
2022/12/15 08:33:17;;;;;;;34.78;14.68;;;;;;;24.48;30.89;98901.34;4970853;28;20050;-57
2022/12/15 08:36:01;;;;;;;35.20;14.75;;;;;;;24.34;31.72;98884.00;4963853;28;20069;-58
2022/12/15 08:38:51;;;;;;;22.67;12.10;;;;;;;24.79;31.50;98878.84;4963056;28;20113;-56
2022/12/15 08:41:33;;;;;;;21.83;13.23;;;;;;;24.72;31.42;98884.72;4963295;28;20104;-57
2022/12/15 08:44:22;;;;;;;25.50;13.82;;;;;;;24.68;31.24;98874.66;4964409;28;20074;-56
2022/12/15 08:47:04;;;;;;;19.50;11.63;;;;;;;24.45;30.40;98874.50;4965077;28;20058;-58
2022/12/15 08:49:59;;;;;;;19.05;11.07;;;;;;;24.39;30.86;98875.72;4941584;28;20070;-58
2022/12/15 08:52:40;;;;;;;23.33;11.93;;;;;;;24.80;30.50;98884.03;4948136;28;20054;-57
2022/12/15 08:55:55;;;;;;;25.70;14.05;;;;;;;24.58;31.67;98872.94;4951298;28;20054;-57
2022/12/15 08:58:31;;;;;;;27.17;12.90;;;;;;;24.68;30.89;98883.72;4969146;28;20058;-55
2022/12/15 09:01:30;;;;;;;22.63;12.77;;;;;;;24.71;30.47;98874.88;4949978;28;20534;-60
2022/12/15 09:04:07;;;;;;;23.55;12.65;;;;;;;24.42;32.36;98864.16;4966888;28;20122;-59
2022/12/15 09:06:55;;;;;;;26.90;13.13;;;;;;;24.40;33.18;98867.19;4952980;28;20066;-56
2022/12/15 09:09:37;;;;;;;17.80;12.35;;;;;;;24.57;31.73;98855.66;4949951;28;20141;-59
2022/12/15 09:12:27;;;;;;;19.90;12.98;;;;;;;24.60;31.71;98859.72;4929800;29;20066;-58
2022/12/15 09:15:09;;;;;;;25.27;11.65;;;;;;;24.68;31.48;98856.25;4949351;28;20263;-57
2022/12/15 09:18:04;;;;;;;24.50;12.52;;;;;;;24.48;32.16;98845.66;4952061;28;20051;-60
2022/12/15 09:20:40;;;;;;;27.80;12.50;;;;;;;24.17;33.39;98835.22;4948778;28;20150;-58
2022/12/15 09:23:29;;;;;;;20.48;12.93;;;;;;;24.49;32.36;98844.53;4952547;28;20067;-59
2022/12/15 09:26:19;;;;;;;22.55;11.85;;;;;;;24.56;32.66;98842.25;4946256;28;20051;-58
2022/12/15 09:29:01;;;;;;;20.17;11.55;;;;;;;24.60;32.95;98835.84;4951106;28;20058;-58
2022/12/15 09:31:50;;;;;;;26.48;12.02;;;;;;;24.52;32.83;98836.53;4945880;28;20066;-57
2022/12/15 09:34:32;;;;;;;18.95;11.90;;;;;;;24.41;32.68;98827.66;4947728;28;20047;-57
2022/12/15 09:37:21;;;;;;;17.35;11.10;;;;;;;24.41;31.30;98824.91;4956142;28;20153;-58
2022/12/15 09:40:05;;;;;;;21.40;11.85;;;;;;;24.53;32.02;98826.38;4949748;28;20074;-57
2022/12/15 09:43:00;;;;;;;23.65;12.88;;;;;;;24.49;31.52;98825.31;4948387;28;20077;-59
2022/12/15 09:46:36;;;;;;;18.00;11.52;;;;;;;24.50;32.81;98826.97;4948494;28;20051;-58
2022/12/15 09:49:53;;;;;;;23.88;14.00;;;;;;;24.36;31.91;98826.94;4918216;28;20070;-58
2022/12/15 09:52:40;;;;;;;20.58;12.35;;;;;;;24.39;31.58;98826.34;4966223;28;20054;-58
2022/12/15 09:55:31;;;;;;;20.75;11.57;;;;;;;24.35;31.17;98820.63;4971167;28;20059;-59
2022/12/15 09:58:39;;;;;;;23.52;12.88;;;;;;;24.32;32.51;98815.75;4942909;28;20066;-59
2022/12/15 10:01:54;;;;;;;21.00;13.13;;;;;;;24.20;32.52;98812.69;4963875;28;20143;-60
2022/12/15 10:04:53;;;;;;;21.08;13.52;;;;;;;24.27;31.78;98812.28;4967037;28;20729;-59
2022/12/15 10:07:47;;;;;;;24.88;11.90;;;;;;;24.18;30.36;98815.72;4968897;28;20058;-60
2022/12/15 10:10:33;;;;;;;23.88;12.48;;;;;;;24.12;29.81;98816.94;4965583;28;20656;-59
2022/12/15 10:13:40;;;;;;;27.63;12.60;;;;;;;24.10;30.41;98815.63;4966122;28;20071;-60
2022/12/15 10:16:22;;;;;;;22.35;12.35;;;;;;;24.10;31.55;98808.19;4966416;28;20121;-60
2022/12/15 10:19:34;;;;;;;25.50;12.60;;;;;;;24.01;31.24;98805.31;4967126;28;20137;-58
2022/12/15 10:22:20;;;;;;;29.67;13.00;;;;;;;24.01;31.60;98805.31;4967377;28;20153;-58
2022/12/15 10:25:22;;;;;;;25.77;12.48;;;;;;;23.94;32.25;98804.09;4961843;28;20047;-63
2022/12/15 10:28:16;;;;;;;24.20;12.95;;;;;;;23.70;32.60;98804.19;4967958;28;20081;-59
2022/12/15 10:31:34;;;;;;;20.17;12.48;;;;;;;23.95;31.91;98806.53;4966272;28;20062;-58
2022/12/15 10:34:35;;;;;;;24.02;12.23;;;;;;;23.93;32.63;98800.53;4963838;28;20058;-59
2022/12/15 10:37:23;;;;;;;24.85;12.13;;;;;;;23.75;33.69;98801.34;4951748;28;20134;-60
2022/12/15 10:40:05;;;;;;;24.92;13.85;;;;;;;23.62;34.06;98806.47;4965057;28;20138;-58
2022/12/15 10:42:54;;;;;;;21.33;12.93;;;;;;;23.57;32.96;98806.56;4963833;28;20403;-59
2022/12/15 10:45:44;;;;;;;23.15;12.13;;;;;;;23.43;32.91;98803.75;4966652;28;20365;-58
2022/12/15 10:48:42;;;;;;;24.42;11.98;;;;;;;23.60;31.67;98802.44;4948862;28;20121;-58
2022/12/15 10:51:36;;;;;;;21.38;12.48;;;;;;;23.44;34.27;98802.66;4965751;28;20137;-58
2022/12/15 10:54:31;;;;;;;36.28;16.27;;;;;;;23.24;34.62;98802.94;4963899;28;20051;-60
2022/12/15 10:57:41;;;;;;;23.27;13.10;;;;;;;23.34;34.46;98796.50;4952089;28;20467;-56
2022/12/15 11:00:32;;;;;;;22.15;12.82;;;;;;;23.24;34.27;98801.00;4963351;28;20125;-59
2022/12/15 11:03:30;;;;;;;28.40;13.93;;;;;;;23.11;34.99;98796.28;4969726;28;20134;-59
2022/12/15 11:06:33;;;;;;;27.08;14.38;;;;;;;23.04;35.79;98793.06;4972746;28;20232;-59
2022/12/15 11:09:38;;;;;;;33.95;13.85;;;;;;;22.91;37.20;98786.38;4968907;28;20046;-59
2022/12/15 11:15:50;;;;;;;26.42;14.43;;;;;;;22.80;38.02;98782.97;4963087;28;20058;-60
2022/12/15 11:18:38;;;;;;;35.17;15.10;;;;;;;22.71;37.41;98787.44;4966878;28;20062;-58
2022/12/15 11:21:52;;;;;;;31.30;15.55;;;;;;;22.54;40.90;98781.63;4965476;28;20063;-58
2022/12/15 11:24:40;;;;;;;28.17;14.02;;;;;;;22.37;41.30;98785.63;4966665;28;20074;-58
2022/12/15 11:27:37;;;;;;;26.50;14.45;;;;;;;22.38;40.84;98781.00;4959678;28;20101;-58
2022/12/15 11:30:31;;;;;;;35.88;14.48;;;;;;;22.16;41.33;98784.19;4965218;28;20051;-58
2022/12/15 11:33:14;;;;;;;33.22;16.15;;;;;;;22.09;43.01;98781.81;4964131;28;20043;-59
2022/12/15 11:36:09;;;;;;;33.42;15.13;;;;;;;21.93;43.39;98794.78;4965746;28;20051;-56
2022/12/15 11:39:16;;;;;;;25.40;15.68;;;;;;;21.82;43.78;98795.97;4965173;28;20134;-58
2022/12/15 11:42:22;;;;;;;38.92;16.13;;;;;;;21.67;44.88;98795.00;4964967;28;20039;-58
2022/12/15 11:45:29;;;;;;;35.10;14.85;;;;;;;21.56;45.32;98787.97;4964906;28;20142;-59
2022/12/15 11:48:21;;;;;;;30.58;15.18;;;;;;;21.38;47.43;98797.66;4966427;28;20506;-58
2022/12/15 11:51:06;;;;;;;32.83;15.70;;;;;;;21.22;47.57;98791.44;4967705;28;20069;-58
2022/12/15 11:54:07;;;;;;;35.15;15.48;;;;;;;21.08;48.22;98793.19;4969666;28;20086;-59
2022/12/15 11:57:10;;;;;;;39.38;16.83;;;;;;;21.03;47.77;98787.72;4967028;28;20129;-58
2022/12/15 12:00:18;;;;;;;41.55;18.65;;;;;;;20.85;48.07;98784.56;4966509;28;20868;-59
2022/12/15 12:03:24;;;;;;;52.22;19.58;;;;;;;20.70;49.41;98782.69;4966197;28;20188;-60
2022/12/15 12:06:51;;;;;;;38.20;19.20;;;;;;;20.64;49.40;98791.19;4966501;28;20438;-60
2022/12/15 12:09:41;;;;;;;41.25;19.20;;;;;;;20.44;50.89;98783.84;4920306;28;20125;-59
2022/12/15 12:12:33;;;;;;;55.45;17.73;;;;;;;20.40;50.26;98793.66;4965452;28;20057;-59
2022/12/15 12:15:34;;;;;;;45.47;18.85;;;;;;;20.21;50.77;98786.06;4966120;28;20146;-58
2022/12/15 12:18:37;;;;;;;43.13;19.55;;;;;;;20.15;51.40;98787.19;4949079;28;20055;-61
2022/12/15 12:21:55;;;;;;;49.72;21.02;;;;;;;20.09;52.45;98783.66;4952327;28;20054;-60
2022/12/15 12:24:38;;;;;;;48.40;20.23;;;;;;;19.97;52.42;98791.31;4966070;28;20053;-59
2022/12/15 12:27:55;;;;;;;53.30;20.20;;;;;;;19.81;52.34;98785.03;4964991;28;20053;-58
2022/12/15 12:30:51;;;;;;;46.58;20.35;;;;;;;19.81;52.50;98793.19;4964168;28;20133;-59
2022/12/15 12:33:48;;;;;;;70.57;22.25;;;;;;;19.71;53.33;98787.72;4964500;28;20117;-58
2022/12/15 12:36:30;;;;;;;58.72;23.08;;;;;;;19.63;53.22;98799.16;4962670;28;20061;-58
2022/12/15 12:39:30;;;;;;;55.10;21.50;;;;;;;19.59;52.89;98796.16;4962160;28;20483;-57
2022/12/15 12:42:14;;;;;;;64.40;22.40;;;;;;;19.53;53.46;98800.78;4966151;28;20051;-57
2022/12/15 12:45:11;;;;;;;60.13;22.58;;;;;;;19.42;54.50;98801.84;4964644;28;20134;-59
2022/12/15 12:48:01;;;;;;;62.35;23.75;;;;;;;19.38;54.63;98797.25;4611874;28;9999830;-59
2022/12/15 12:50:52;;;;;;;67.03;27.73;;;;;;;19.33;54.78;98803.47;4960757;28;20648;-59
2022/12/15 12:53:38;;;;;;;65.72;24.27;;;;;;;19.24;55.12;98805.06;4964725;28;20050;-55
2022/12/15 12:56:42;;;;;;;67.13;24.75;;;;;;;19.16;55.11;98800.97;4968009;28;20050;-57
2022/12/15 12:59:36;;;;;;;52.33;24.98;;;;;;;19.09;55.40;98814.03;4958796;28;20178;-56
2022/12/15 13:02:37;;;;;;;72.00;25.02;;;;;;;19.06;55.60;98817.28;4967395;28;20133;-56
2022/12/15 13:05:34;;;;;;;74.35;25.83;;;;;;;19.00;55.82;98821.06;4973105;28;20039;-57
2022/12/15 13:08:44;;;;;;;68.60;27.40;;;;;;;18.98;55.65;98824.88;4973422;28;20133;-59
2022/12/15 13:12:00;;;;;;;70.10;26.08;;;;;;;19.03;55.49;98831.41;4969818;28;20070;-58
2022/12/15 13:15:23;;;;;;;64.93;27.27;;;;;;;18.94;55.41;98833.84;4974313;28;20073;-59
2022/12/15 13:18:27;;;;;;;60.03;25.45;;;;;;;18.93;56.16;98833.00;4973678;28;20054;-59
2022/12/15 13:21:42;;;;;;;56.67;25.48;;;;;;;18.88;56.08;98834.91;4973779;28;20054;-54
2022/12/15 13:24:40;;;;;;;59.75;25.77;;;;;;;18.92;56.47;98828.66;4963228;28;20114;-55
2022/12/15 13:27:23;;;;;;;71.03;24.33;;;;;;;18.87;56.42;98823.19;4942228;28;20152;-55
2022/12/15 13:30:14;;;;;;;57.17;24.92;;;;;;;18.89;56.63;98831.88;4962119;28;20062;-55
2022/12/15 13:33:18;;;;;;;52.85;25.70;;;;;;;18.88;56.62;98830.28;4962402;28;20051;-56
2022/12/15 13:36:06;;;;;;;54.30;25.02;;;;;;;18.76;56.41;98832.34;4950628;28;20042;-54
2022/12/15 13:38:54;;;;;;;67.45;27.13;;;;;;;18.70;55.53;98838.84;4947719;28;20054;-55
2022/12/15 13:41:47;;;;;;;50.20;24.38;;;;;;;18.67;56.53;98842.13;4962686;28;20055;-55
2022/12/15 13:44:56;;;;;;;55.75;25.40;;;;;;;18.56;56.69;98843.94;4945744;28;20057;-57
2022/12/15 13:47:59;;;;;;;55.55;24.60;;;;;;;18.62;57.45;98847.50;4963551;28;20141;-54
2022/12/15 13:51:20;;;;;;;68.75;26.00;;;;;;;18.52;56.80;98843.66;4959655;28;20053;-54
2022/12/15 13:54:20;;;;;;;77.93;25.67;;;;;;;18.52;57.63;98842.84;4963262;28;20153;-56
2022/12/15 13:57:08;;;;;;;72.47;28.10;;;;;;;18.45;58.16;98850.41;4963741;28;20098;-54
2022/12/15 14:00:17;;;;;;;61.97;28.50;;;;;;;18.44;57.85;98852.31;4959671;28;20383;-54
2022/12/15 14:03:10;;;;;;;62.60;29.48;;;;;;;18.46;57.75;98855.56;4962017;28;20046;-54
2022/12/15 14:06:05;;;;;;;60.97;29.92;;;;;;;18.43;57.31;98850.66;4962631;28;20059;-53
2022/12/15 14:08:47;;;;;;;73.18;31.88;;;;;;;18.46;57.45;98852.84;4957285;28;20057;-54
2022/12/15 14:11:40;;;;;;;77.63;31.65;;;;;;;18.47;57.49;98854.47;4961658;28;20051;-55
2022/12/15 14:14:51;;;;;;;83.82;32.63;;;;;;;18.28;57.30;98853.28;4963064;28;20157;-55
2022/12/15 14:17:42;;;;;;;81.43;33.70;;;;;;;18.25;57.54;98856.50;4962648;28;20051;-55
2022/12/15 14:20:39;;;;;;;76.90;34.03;;;;;;;18.30;57.61;98859.25;4964301;28;20098;-53
2022/12/15 14:23:34;;;;;;;67.28;32.67;;;;;;;18.18;57.98;98857.53;4961362;28;20043;-54
2022/12/15 14:26:43;;;;;;;83.18;34.97;;;;;;;18.18;58.15;98865.69;4962009;28;20061;-53
2022/12/15 14:29:30;;;;;;;71.38;33.08;;;;;;;18.17;58.26;98858.63;4963078;28;20065;-54
2022/12/15 14:32:20;;;;;;;72.93;34.10;;;;;;;18.19;57.92;98851.03;4964438;28;20153;-54
2022/12/15 14:35:03;;;;;;;94.60;38.95;;;;;;;18.19;57.39;98866.53;4965946;28;20130;-54
2022/12/15 14:37:53;;;;;;;85.35;35.25;;;;;;;18.18;57.62;98857.53;4963246;28;20050;-55
2022/12/15 14:40:36;;;;;;;70.68;35.38;;;;;;;18.16;57.82;98861.59;4962928;28;20046;-54
2022/12/15 14:43:42;;;;;;;70.60;34.28;;;;;;;18.28;57.38;98861.41;4961441;28;20091;-54
2022/12/15 14:46:51;;;;;;;75.75;33.47;;;;;;;18.27;58.09;98865.22;4960033;28;20079;-54
2022/12/15 14:49:38;;;;;;;76.88;32.78;;;;;;;18.35;56.48;98859.31;4962446;28;20035;-57
2022/12/15 14:52:40;;;;;;;71.50;34.97;;;;;;;18.42;55.95;98859.06;4967855;28;20485;-54
2022/12/15 14:55:45;;;;;;;69.07;34.08;;;;;;;18.49;56.05;98860.47;4965023;28;20074;-57
2022/12/15 14:58:39;;;;;;;74.38;34.45;;;;;;;18.61;54.78;98859.44;4963554;28;20051;-55
2022/12/15 15:01:58;;;;;;;67.60;33.45;;;;;;;18.69;53.87;98865.22;4961530;28;20067;-56
2022/12/15 15:05:23;;;;;;;63.75;32.03;;;;;;;18.78;53.33;98860.09;4951261;28;20054;-56
2022/12/15 15:08:16;;;;;;;73.00;33.97;;;;;;;18.68;54.52;98863.56;4965028;28;20051;-55
2022/12/15 15:11:18;;;;;;;74.72;35.95;;;;;;;18.50;55.14;98856.69;4966326;28;20479;-55
2022/12/15 15:14:18;;;;;;;68.70;35.60;;;;;;;18.47;55.70;98853.66;4950450;28;20051;-55
2022/12/15 15:17:08;;;;;;;64.72;35.28;;;;;;;18.43;55.91;98860.72;4962481;28;20158;-56
2022/12/15 15:20:08;;;;;;;68.10;35.08;;;;;;;18.42;55.41;98859.91;4961875;28;20141;-56
2022/12/15 15:23:14;;;;;;;64.57;34.28;;;;;;;18.37;55.64;98854.44;4963827;28;20434;-55
2022/12/15 15:26:14;;;;;;;74.28;37.90;;;;;;;18.30;56.91;98857.34;4960100;28;20061;-55
2022/12/15 15:29:04;;;;;;;73.03;36.05;;;;;;;18.27;56.75;98859.78;4962217;28;20047;-56
2022/12/15 15:31:46;;;;;;;77.75;35.90;;;;;;;18.27;55.75;98862.50;4959381;28;20054;-55
2022/12/15 15:34:35;;;;;;;61.20;35.05;;;;;;;18.26;56.21;98861.66;4963385;28;20141;-57
2022/12/15 15:37:22;;;;;;;70.60;34.78;;;;;;;18.28;56.46;98866.84;4963654;28;20047;-55